Hugo, Oklahoma
Current Conditions -  °F | °C
As of 12:35 AM on Thursday 27 Nov 2014 (Local Time) from KHHW Reporting Station
Clear Clear  
Wind Chill: 35°   Ceiling: Unl
Heat Index: 41°   Visibility: 10mi
Dew Point: 25°   Wind: 10mph
Humidity: 53%   Direction: 310°NW
Pressure: 30.41"   Gusts: NA
Location:  34.01°N, 95.51°W
Report Text: KHHW 270635Z AUTO 31009KT 10SM CLR 05/M04 A3041 RMK AO2 T00521037
Loading
Personal Weather Stations






























Interactive Weather Map New forecast layout! Learn more

10-Day Weather Forecast

Advertisements
Track Severe Weather on mobile